sensor_id;sensor_type;location;lat;lon;timestamp;pressure;altitude;pressure_sealevel;temperature
76541;BMP280;65385;55.772;37.658;2023-04-02T00:01:21;99111.97;;;7.07
76541;BMP280;65385;55.772;37.658;2023-04-02T00:03:23;99118.72;;;7.08
76541;BMP280;65385;55.772;37.658;2023-04-02T00:04:24;99121.88;;;7.10
76541;BMP280;65385;55.772;37.658;2023-04-02T00:07:32;99124.22;;;7.12
76541;BMP280;65385;55.772;37.658;2023-04-02T00:08:37;99124.22;;;7.12
76541;BMP280;65385;55.772;37.658;2023-04-02T00:09:40;99119.03;;;7.12
76541;BMP280;65385;55.772;37.658;2023-04-02T00:10:49;99124.00;;;7.14
76541;BMP280;65385;55.772;37.658;2023-04-02T00:11:51;99114.84;;;7.11
76541;BMP280;65385;55.772;37.658;2023-04-02T00:14:16;99125.25;;;7.11
76541;BMP280;65385;55.772;37.658;2023-04-02T00:15:17;99121.63;;;7.12
76541;BMP280;65385;55.772;37.658;2023-04-02T00:16:21;99122.41;;;7.13
76541;BMP280;65385;55.772;37.658;2023-04-02T00:17:23;99121.41;;;7.14
76541;BMP280;65385;55.772;37.658;2023-04-02T00:18:25;99119.81;;;7.13
76541;BMP280;65385;55.772;37.658;2023-04-02T00:19:59;99117.47;;;7.11
76541;BMP280;65385;55.772;37.658;2023-04-02T00:21:26;99129.44;;;7.12
76541;BMP280;65385;55.772;37.658;2023-04-02T00:22:29;99122.91;;;7.09
76541;BMP280;65385;55.772;37.658;2023-04-02T00:23:34;99126.03;;;7.11
76541;BMP280;65385;55.772;37.658;2023-04-02T00:24:37;99125.25;;;7.11
76541;BMP280;65385;55.772;37.658;2023-04-02T00:25:40;99122.41;;;7.13
76541;BMP280;65385;55.772;37.658;2023-04-02T00:26:52;99131.78;;;7.14
76541;BMP280;65385;55.772;37.658;2023-04-02T00:27:55;99138.25;;;7.11
76541;BMP280;65385;55.772;37.658;2023-04-02T00:28:59;99132.28;;;7.10
76541;BMP280;65385;55.772;37.658;2023-04-02T00:30:00;99127.84;;;7.11
76541;BMP280;65385;55.772;37.658;2023-04-02T00:31:01;99133.84;;;7.11
76541;BMP280;65385;55.772;37.658;2023-04-02T00:32:01;99130.47;;;7.11
76541;BMP280;65385;55.772;37.658;2023-04-02T00:33:02;99134.41;;;7.14
76541;BMP280;65385;55.772;37.658;2023-04-02T00:34:07;99138.00;;;7.13
76541;BMP280;65385;55.772;37.658;2023-04-02T00:35:18;99129.97;;;7.14
76541;BMP280;65385;55.772;37.658;2023-04-02T00:36:21;99147.69;;;7.17
76541;BMP280;65385;55.772;37.658;2023-04-02T00:37:24;99140.66;;;7.18
76541;BMP280;65385;55.772;37.658;2023-04-02T00:38:30;99140.66;;;7.18
76541;BMP280;65385;55.772;37.658;2023-04-02T00:39:37;99141.19;;;7.20
76541;BMP280;65385;55.772;37.658;2023-04-02T00:40:41;99137.28;;;7.17
76541;BMP280;65385;55.772;37.658;2023-04-02T00:41:42;99140.41;;;7.19
76541;BMP280;65385;55.772;37.658;2023-04-02T00:42:47;99138.34;;;7.21
76541;BMP280;65385;55.772;37.658;2023-04-02T00:43:48;99139.13;;;7.22
76541;BMP280;65385;55.772;37.658;2023-04-02T00:44:52;99132.13;;;7.22
76541;BMP280;65385;55.772;37.658;2023-04-02T00:45:55;99133.94;;;7.22
76541;BMP280;65385;55.772;37.658;2023-04-02T00:47:02;99135.25;;;7.24
76541;BMP280;65385;55.772;37.658;2023-04-02T00:48:22;99133.97;;;7.27
76541;BMP280;65385;55.772;37.658;2023-04-02T00:49:35;99134.53;;;7.29
76541;BMP280;65385;55.772;37.658;2023-04-02T00:50:39;99141.78;;;7.27
76541;BMP280;65385;55.772;37.658;2023-04-02T00:51:47;99132.94;;;7.28
76541;BMP280;65385;55.772;37.658;2023-04-02T00:52:50;99138.16;;;7.28
76541;BMP280;65385;55.772;37.658;2023-04-02T00:53:54;99142.34;;;7.29
76541;BMP280;65385;55.772;37.658;2023-04-02T00:55:10;99144.94;;;7.29
76541;BMP280;65385;55.772;37.658;2023-04-02T00:56:32;99141.31;;;7.30
76541;BMP280;65385;55.772;37.658;2023-04-02T00:57:35;99145.72;;;7.29
76541;BMP280;65385;55.772;37.658;2023-04-02T00:58:37;99147.22;;;7.30
76541;BMP280;65385;55.772;37.658;2023-04-02T00:59:50;99145.97;;;7.33
76541;BMP280;65385;55.772;37.658;2023-04-02T01:00:51;99144.38;;;7.32
76541;BMP280;65385;55.772;37.658;2023-04-02T01:01:57;99149.91;;;7.35
76541;BMP280;65385;55.772;37.658;2023-04-02T01:04:29;99152.00;;;7.38
76541;BMP280;65385;55.772;37.658;2023-04-02T01:05:34;99148.63;;;7.38
76541;BMP280;65385;55.772;37.658;2023-04-02T01:06:36;99147.81;;;7.37
76541;BMP280;65385;55.772;37.658;2023-04-02T01:07:46;99148.63;;;7.38
76541;BMP280;65385;55.772;37.658;2023-04-02T01:09:03;99146.78;;;7.38
76541;BMP280;65385;55.772;37.658;2023-04-02T01:10:19;99142.63;;;7.37
76541;BMP280;65385;55.772;37.658;2023-04-02T01:13:48;99150.19;;;7.39
76541;BMP280;65385;55.772;37.658;2023-04-02T01:15:10;99149.16;;;7.40
76541;BMP280;65385;55.772;37.658;2023-04-02T01:16:19;99154.38;;;7.40
76541;BMP280;65385;55.772;37.658;2023-04-02T01:22:30;99157.25;;;7.43
76541;BMP280;65385;55.772;37.658;2023-04-02T01:24:46;99147.88;;;7.42
76541;BMP280;65385;55.772;37.658;2023-04-02T01:26:03;99154.38;;;7.45
76541;BMP280;65385;55.772;37.658;2023-04-02T01:27:42;99149.97;;;7.45
76541;BMP280;65385;55.772;37.658;2023-04-02T01:29:48;99148.41;;;7.44
76541;BMP280;65385;55.772;37.658;2023-04-02T01:30:54;99151.00;;;7.44
76541;BMP280;65385;55.772;37.658;2023-04-02T01:32:00;99149.47;;;7.48
76541;BMP280;65385;55.772;37.658;2023-04-02T01:33:02;99149.47;;;7.48
76541;BMP280;65385;55.772;37.658;2023-04-02T01:34:08;99151.84;;;7.50
76541;BMP280;65385;55.772;37.658;2023-04-02T01:35:09;99155.22;;;7.50
76541;BMP280;65385;55.772;37.658;2023-04-02T01:38:02;99145.84;;;7.49
76541;BMP280;65385;55.772;37.658;2023-04-02T01:40:46;99144.56;;;7.52
76541;BMP280;65385;55.772;37.658;2023-04-02T01:45:43;99141.97;;;7.52
76541;BMP280;65385;55.772;37.658;2023-04-02T01:46:47;99137.53;;;7.52
76541;BMP280;65385;55.772;37.658;2023-04-02T01:47:49;99144.28;;;7.53
76541;BMP280;65385;55.772;37.658;2023-04-02T01:48:52;99141.44;;;7.55
76541;BMP280;65385;55.772;37.658;2023-04-02T01:49:58;99143.03;;;7.56
76541;BMP280;65385;55.772;37.658;2023-04-02T01:51:05;99136.00;;;7.56
76541;BMP280;65385;55.772;37.658;2023-04-02T01:52:06;99142.78;;;7.57
76541;BMP280;65385;55.772;37.658;2023-04-02T01:53:11;99139.38;;;7.57
76541;BMP280;65385;55.772;37.658;2023-04-02T01:54:13;99136.78;;;7.57
76541;BMP280;65385;55.772;37.658;2023-04-02T01:55:18;99139.63;;;7.55
76541;BMP280;65385;55.772;37.658;2023-04-02T01:56:20;99137.03;;;7.55
76541;BMP280;65385;55.772;37.658;2023-04-02T01:57:21;99141.22;;;7.56
76541;BMP280;65385;55.772;37.658;2023-04-02T01:58:24;99140.97;;;7.58
76541;BMP280;65385;55.772;37.658;2023-04-02T01:59:27;99140.97;;;7.58
76541;BMP280;65385;55.772;37.658;2023-04-02T02:00:34;99145.13;;;7.59
76541;BMP280;65385;55.772;37.658;2023-04-02T02:01:46;99140.97;;;7.58
76541;BMP280;65385;55.772;37.658;2023-04-02T02:02:49;99139.91;;;7.59
76541;BMP280;65385;55.772;37.658;2023-04-02T02:03:51;99137.81;;;7.56
76541;BMP280;65385;55.772;37.658;2023-04-02T02:04:52;99138.38;;;7.58
76541;BMP280;65385;55.772;37.658;2023-04-02T02:05:53;99140.69;;;7.60
76541;BMP280;65385;55.772;37.658;2023-04-02T02:07:00;99142.78;;;7.57
76541;BMP280;65385;55.772;37.658;2023-04-02T02:08:02;99141.75;;;7.59
76541;BMP280;65385;55.772;37.658;2023-04-02T02:09:05;99144.09;;;7.60
76541;BMP280;65385;55.772;37.658;2023-04-02T02:10:19;99142.28;;;7.61
76541;BMP280;65385;55.772;37.658;2023-04-02T02:11:26;99141.47;;;7.60
76541;BMP280;65385;55.772;37.658;2023-04-02T02:12:27;99139.91;;;7.59
76541;BMP280;65385;55.772;37.658;2023-04-02T02:13:28;99143.56;;;7.58
76541;BMP280;65385;55.772;37.658;2023-04-02T02:14:29;99143.56;;;7.58
76541;BMP280;65385;55.772;37.658;2023-04-02T02:15:50;99137.56;;;7.57
76541;BMP280;65385;55.772;37.658;2023-04-02T02:16:56;99140.97;;;7.58
76541;BMP280;65385;55.772;37.658;2023-04-02T02:18:05;99133.94;;;7.59
76541;BMP280;65385;55.772;37.658;2023-04-02T02:20:21;99139.91;;;7.59
76541;BMP280;65385;55.772;37.658;2023-04-02T02:21:43;99134.69;;;7.59
76541;BMP280;65385;55.772;37.658;2023-04-02T02:22:46;99134.19;;;7.57
76541;BMP280;65385;55.772;37.658;2023-04-02T02:23:48;99135.72;;;7.53
76541;BMP280;65385;55.772;37.658;2023-04-02T02:24:48;99139.63;;;7.55
76541;BMP280;65385;55.772;37.658;2023-04-02T02:25:49;99138.84;;;7.55
76541;BMP280;65385;55.772;37.658;2023-04-02T02:28:40;99141.69;;;7.53
76541;BMP280;65385;55.772;37.658;2023-04-02T02:29:43;99145.88;;;7.54
76541;BMP280;65385;55.772;37.658;2023-04-02T02:30:47;99144.03;;;7.55
76541;BMP280;65385;55.772;37.658;2023-04-02T02:31:52;99150.03;;;7.55
76541;BMP280;65385;55.772;37.658;2023-04-02T02:34:23;99152.63;;;7.55
76541;BMP280;65385;55.772;37.658;2023-04-02T02:35:35;99154.44;;;7.55
76541;BMP280;65385;55.772;37.658;2023-04-02T02:36:51;99154.44;;;7.55
76541;BMP280;65385;55.772;37.658;2023-04-02T02:38:05;99153.66;;;7.54
76541;BMP280;65385;55.772;37.658;2023-04-02T02:39:42;99154.44;;;7.55
76541;BMP280;65385;55.772;37.658;2023-04-02T02:40:43;99157.06;;;7.55
76541;BMP280;65385;55.772;37.658;2023-04-02T02:41:57;99156.03;;;7.56
76541;BMP280;65385;55.772;37.658;2023-04-02T02:43:01;99157.06;;;7.55
76541;BMP280;65385;55.772;37.658;2023-04-02T02:44:19;99158.63;;;7.56
76541;BMP280;65385;55.772;37.658;2023-04-02T02:45:26;99159.41;;;7.56
76541;BMP280;65385;55.772;37.658;2023-04-02T02:46:28;99160.22;;;7.57
76541;BMP280;65385;55.772;37.658;2023-04-02T02:47:33;99159.19;;;7.58
76541;BMP280;65385;55.772;37.658;2023-04-02T02:48:38;99156.56;;;7.58
76541;BMP280;65385;55.772;37.658;2023-04-02T02:49:43;99157.38;;;7.59
76541;BMP280;65385;55.772;37.658;2023-04-02T02:50:46;99157.59;;;7.57
76541;BMP280;65385;55.772;37.658;2023-04-02T02:51:59;99156.56;;;7.58
76541;BMP280;65385;55.772;37.658;2023-04-02T02:53:22;99155.00;;;7.57
76541;BMP280;65385;55.772;37.658;2023-04-02T02:54:24;99149.25;;;7.55
76541;BMP280;65385;55.772;37.658;2023-04-02T02:55:34;99152.41;;;7.57
76541;BMP280;65385;55.772;37.658;2023-04-02T02:56:46;99156.03;;;7.56
76541;BMP280;65385;55.772;37.658;2023-04-02T02:57:55;99156.03;;;7.56
76541;BMP280;65385;55.772;37.658;2023-04-02T02:59:00;99150.28;;;7.54
76541;BMP280;65385;55.772;37.658;2023-04-02T03:00:06;99154.69;;;7.53
76541;BMP280;65385;55.772;37.658;2023-04-02T03:01:09;99156.53;;;7.53
76541;BMP280;65385;55.772;37.658;2023-04-02T03:02:14;99148.72;;;7.53
76541;BMP280;65385;55.772;37.658;2023-04-02T03:03:19;99152.34;;;7.52
76541;BMP280;65385;55.772;37.658;2023-04-02T03:04:25;99150.81;;;7.51
76541;BMP280;65385;55.772;37.658;2023-04-02T03:05:28;99150.81;;;7.51
76541;BMP280;65385;55.772;37.658;2023-04-02T03:06:34;99149.25;;;7.50
76541;BMP280;65385;55.772;37.658;2023-04-02T03:07:36;99153.66;;;7.49
76541;BMP280;65385;55.772;37.658;2023-04-02T03:08:44;99157.03;;;7.50
76541;BMP280;65385;55.772;37.658;2023-04-02T03:10:08;99163.28;;;7.49
76541;BMP280;65385;55.772;37.658;2023-04-02T03:13:29;99168.25;;;7.50
76541;BMP280;65385;55.772;37.658;2023-04-02T03:14:45;99164.06;;;7.49
76541;BMP280;65385;55.772;37.658;2023-04-02T03:16:11;99170.56;;;7.52
76541;BMP280;65385;55.772;37.658;2023-04-02T03:17:30;99171.63;;;7.51
76541;BMP280;65385;55.772;37.658;2023-04-02T03:19:57;99173.97;;;7.52
76541;BMP280;65385;55.772;37.658;2023-04-02T03:21:09;99170.31;;;7.53
76541;BMP280;65385;55.772;37.658;2023-04-02T03:22:22;99168.50;;;7.54
76541;BMP280;65385;55.772;37.658;2023-04-02T03:23:28;99178.91;;;7.54
76541;BMP280;65385;55.772;37.658;2023-04-02T03:28:32;99181.03;;;7.57
76541;BMP280;65385;55.772;37.658;2023-04-02T03:29:39;99166.44;;;7.56
76541;BMP280;65385;55.772;37.658;2023-04-02T03:31:09;99170.63;;;7.57
76541;BMP280;65385;55.772;37.658;2023-04-02T03:32:16;99165.41;;;7.57
76541;BMP280;65385;55.772;37.658;2023-04-02T03:33:23;99174.78;;;7.58
76541;BMP280;65385;55.772;37.658;2023-04-02T03:34:43;99172.44;;;7.56
76541;BMP280;65385;55.772;37.658;2023-04-02T03:37:18;99182.84;;;7.56
76541;BMP280;65385;55.772;37.658;2023-04-02T03:38:27;99174.78;;;7.58
76541;BMP280;65385;55.772;37.658;2023-04-02T03:39:42;99180.78;;;7.59
76541;BMP280;65385;55.772;37.658;2023-04-02T03:41:05;99176.59;;;7.57
76541;BMP280;65385;55.772;37.658;2023-04-02T03:42:21;99174.00;;;7.57
76541;BMP280;65385;55.772;37.658;2023-04-02T03:43:27;99178.19;;;7.59
76541;BMP280;65385;55.772;37.658;2023-04-02T03:44:38;99175.56;;;7.59
76541;BMP280;65385;55.772;37.658;2023-04-02T03:45:47;99183.91;;;7.61
76541;BMP280;65385;55.772;37.658;2023-04-02T03:46:55;99174.28;;;7.61
76541;BMP280;65385;55.772;37.658;2023-04-02T03:48:03;99176.41;;;7.64
76541;BMP280;65385;55.772;37.658;2023-04-02T03:49:11;99174.84;;;7.63
76541;BMP280;65385;55.772;37.658;2023-04-02T03:53:01;99179.53;;;7.66
76541;BMP280;65385;55.772;37.658;2023-04-02T03:54:03;99174.59;;;7.70
76541;BMP280;65385;55.772;37.658;2023-04-02T03:55:14;99182.16;;;7.71
76541;BMP280;65385;55.772;37.658;2023-04-02T03:56:31;99180.34;;;7.72
76541;BMP280;65385;55.772;37.658;2023-04-02T03:57:50;99181.13;;;7.72
76541;BMP280;65385;55.772;37.658;2023-04-02T03:58:59;99183.19;;;7.70
76541;BMP280;65385;55.772;37.658;2023-04-02T04:01:23;99186.88;;;7.74
76541;BMP280;65385;55.772;37.658;2023-04-02T04:02:34;99187.38;;;7.76
76541;BMP280;65385;55.772;37.658;2023-04-02T04:04:42;99186.88;;;7.74
76541;BMP280;65385;55.772;37.658;2023-04-02T04:06:06;99181.69;;;7.79
76541;BMP280;65385;55.772;37.658;2023-04-02T04:07:22;99182.22;;;7.81
76541;BMP280;65385;55.772;37.658;2023-04-02T04:08:36;99179.59;;;7.81
76541;BMP280;65385;55.772;37.658;2023-04-02T04:09:44;99175.69;;;7.79
76541;BMP280;65385;55.772;37.658;2023-04-02T04:10:51;99175.47;;;7.80
76541;BMP280;65385;55.772;37.658;2023-04-02T04:12:08;99174.41;;;7.81
76541;BMP280;65385;55.772;37.658;2023-04-02T04:13:28;99173.91;;;7.84
76541;BMP280;65385;55.772;37.658;2023-04-02T04:14:34;99178.88;;;7.86
76541;BMP280;65385;55.772;37.658;2023-04-02T04:17:03;99184.59;;;7.88
76541;BMP280;65385;55.772;37.658;2023-04-02T04:18:18;99181.72;;;7.89
76541;BMP280;65385;55.772;37.658;2023-04-02T04:20:48;99177.06;;;7.91
76541;BMP280;65385;55.772;37.658;2023-04-02T04:21:51;99174.47;;;7.91
76541;BMP280;65385;55.772;37.658;2023-04-02T04:23:32;99174.78;;;7.95
76541;BMP280;65385;55.772;37.658;2023-04-02T04:24:35;99173.97;;;7.94
76541;BMP280;65385;55.772;37.658;2023-04-02T04:25:40;99176.31;;;7.96
76541;BMP280;65385;55.772;37.658;2023-04-02T04:27:02;99175.00;;;7.98
76541;BMP280;65385;55.772;37.658;2023-04-02T04:28:28;99176.59;;;7.99
76541;BMP280;65385;55.772;37.658;2023-04-02T04:29:34;99176.09;;;8.02
76541;BMP280;65385;55.772;37.658;2023-04-02T04:31:00;99183.41;;;8.06
76541;BMP280;65385;55.772;37.658;2023-04-02T04:32:28;99182.63;;;8.05
76541;BMP280;65385;55.772;37.658;2023-04-02T04:33:44;99188.63;;;8.06
76541;BMP280;65385;55.772;37.658;2023-04-02T04:34:50;99199.81;;;8.06
76541;BMP280;65385;55.772;37.658;2023-04-02T04:35:58;99196.44;;;8.06
76541;BMP280;65385;55.772;37.658;2023-04-02T04:37:03;99191.75;;;8.08
76541;BMP280;65385;55.772;37.658;2023-04-02T04:39:29;99192.78;;;8.07
76541;BMP280;65385;55.772;37.658;2023-04-02T04:40:36;99199.56;;;8.08
76541;BMP280;65385;55.772;37.658;2023-04-02T04:41:41;99199.56;;;8.08
76541;BMP280;65385;55.772;37.658;2023-04-02T04:42:44;99215.19;;;8.08
76541;BMP280;65385;55.772;37.658;2023-04-02T04:46:52;99207.88;;;8.05
76541;BMP280;65385;55.772;37.658;2023-04-02T04:48:00;99214.09;;;8.03
76541;BMP280;65385;55.772;37.658;2023-04-02T04:49:19;99219.31;;;8.03
76541;BMP280;65385;55.772;37.658;2023-04-02T04:51:07;99216.19;;;8.01
76541;BMP280;65385;55.772;37.658;2023-04-02T04:52:19;99218.50;;;7.98
76541;BMP280;65385;55.772;37.658;2023-04-02T04:53:24;99214.63;;;7.95
76541;BMP280;65385;55.772;37.658;2023-04-02T04:54:27;99217.22;;;7.95
76541;BMP280;65385;55.772;37.658;2023-04-02T04:55:39;99220.34;;;7.97
76541;BMP280;65385;55.772;37.658;2023-04-02T04:56:48;99217.97;;;7.96
76541;BMP280;65385;55.772;37.658;2023-04-02T04:57:55;99215.66;;;7.94
76541;BMP280;65385;55.772;37.658;2023-04-02T04:59:04;99220.56;;;7.96
76541;BMP280;65385;55.772;37.658;2023-04-02T05:00:18;99213.56;;;7.96
76541;BMP280;65385;55.772;37.658;2023-04-02T05:01:28;99215.13;;;7.97
76541;BMP280;65385;55.772;37.658;2023-04-02T05:03:12;99218.25;;;7.99
76541;BMP280;65385;55.772;37.658;2023-04-02T05:04:40;99212.81;;;8.01
76541;BMP280;65385;55.772;37.658;2023-04-02T05:05:46;99214.63;;;8.00
76541;BMP280;65385;55.772;37.658;2023-04-02T05:06:56;99208.91;;;8.03
76541;BMP280;65385;55.772;37.658;2023-04-02T05:08:23;99212.84;;;8.06
76541;BMP280;65385;55.772;37.658;2023-04-02T05:09:31;99217.25;;;8.06
76541;BMP280;65385;55.772;37.658;2023-04-02T05:11:04;99217.53;;;8.09
76541;BMP280;65385;55.772;37.658;2023-04-02T05:12:35;99216.75;;;8.09
76541;BMP280;65385;55.772;37.658;2023-04-02T05:13:52;99211.25;;;8.10
76541;BMP280;65385;55.772;37.658;2023-04-02T05:15:02;99218.31;;;8.10
76541;BMP280;65385;55.772;37.658;2023-04-02T05:17:20;99212.31;;;8.09
76541;BMP280;65385;55.772;37.658;2023-04-02T05:20:40;99221.19;;;8.08
76541;BMP280;65385;55.772;37.658;2023-04-02T05:21:49;99221.19;;;8.08
76541;BMP280;65385;55.772;37.658;2023-04-02T05:23:02;99221.19;;;8.08
76541;BMP280;65385;55.772;37.658;2023-04-02T05:25:29;99221.44;;;8.07
76541;BMP280;65385;55.772;37.658;2023-04-02T05:26:39;99220.13;;;8.09
76541;BMP280;65385;55.772;37.658;2023-04-02T05:28:09;99224.03;;;8.12
76541;BMP280;65385;55.772;37.658;2023-04-02T05:29:18;99216.47;;;8.10
76541;BMP280;65385;55.772;37.658;2023-04-02T05:33:03;99230.03;;;8.12
76541;BMP280;65385;55.772;37.658;2023-04-02T05:34:04;99225.63;;;8.08
76541;BMP280;65385;55.772;37.658;2023-04-02T05:35:06;99225.06;;;8.11
76541;BMP280;65385;55.772;37.658;2023-04-02T05:36:11;99227.16;;;8.09
76541;BMP280;65385;55.772;37.658;2023-04-02T05:37:23;99229.75;;;8.09
76541;BMP280;65385;55.772;37.658;2023-04-02T05:38:28;99230.81;;;8.08
76541;BMP280;65385;55.772;37.658;2023-04-02T05:39:31;99229.25;;;8.07
76541;BMP280;65385;55.772;37.658;2023-04-02T05:40:43;99230.81;;;8.08
76541;BMP280;65385;55.772;37.658;2023-04-02T05:41:45;99238.38;;;8.09
76541;BMP280;65385;55.772;37.658;2023-04-02T05:42:52;99231.06;;;8.06
76541;BMP280;65385;55.772;37.658;2023-04-02T05:44:07;99241.75;;;8.10
76541;BMP280;65385;55.772;37.658;2023-04-02T05:45:24;99244.38;;;8.10
76541;BMP280;65385;55.772;37.658;2023-04-02T05:46:32;99245.41;;;8.09
76541;BMP280;65385;55.772;37.658;2023-04-02T05:47:35;99241.50;;;8.06
76541;BMP280;65385;55.772;37.658;2023-04-02T05:48:43;99244.88;;;8.07
76541;BMP280;65385;55.772;37.658;2023-04-02T05:49:59;99242.03;;;8.08
76541;BMP280;65385;55.772;37.658;2023-04-02T05:51:01;99247.25;;;8.08
76541;BMP280;65385;55.772;37.658;2023-04-02T05:52:14;99242.78;;;8.09
76541;BMP280;65385;55.772;37.658;2023-04-02T05:53:21;99250.59;;;8.09
76541;BMP280;65385;55.772;37.658;2023-04-02T05:54:30;99239.44;;;8.08
76541;BMP280;65385;55.772;37.658;2023-04-02T05:55:43;99242.03;;;8.08
76541;BMP280;65385;55.772;37.658;2023-04-02T05:56:51;99251.13;;;8.06
76541;BMP280;65385;55.772;37.658;2023-04-02T05:57:59;99245.41;;;8.09
76541;BMP280;65385;55.772;37.658;2023-04-02T05:59:12;99238.88;;;8.11
76541;BMP280;65385;55.772;37.658;2023-04-02T06:02:43;99243.38;;;8.21
76541;BMP280;65385;55.772;37.658;2023-04-02T06:05:22;99240.31;;;8.29
76541;BMP280;65385;55.772;37.658;2023-04-02T06:06:39;99236.94;;;8.33
76541;BMP280;65385;55.772;37.658;2023-04-02T06:07:43;99240.88;;;8.36
76541;BMP280;65385;55.772;37.658;2023-04-02T06:09:00;99245.28;;;8.40
76541;BMP280;65385;55.772;37.658;2023-04-02T06:10:20;99241.94;;;8.45
76541;BMP280;65385;55.772;37.658;2023-04-02T06:11:29;99247.94;;;8.45
76541;BMP280;65385;55.772;37.658;2023-04-02T06:13:52;99249.25;;;8.48
76541;BMP280;65385;55.772;37.658;2023-04-02T06:14:56;99245.88;;;8.53
76541;BMP280;65385;55.772;37.658;2023-04-02T06:16:01;99241.97;;;8.55
76541;BMP280;65385;55.772;37.658;2023-04-02T06:17:05;99242.00;;;8.60
76541;BMP280;65385;55.772;37.658;2023-04-02T06:18:19;99244.88;;;8.59
76541;BMP280;65385;55.772;37.658;2023-04-02T06:19:29;99244.59;;;8.60
76541;BMP280;65385;55.772;37.658;2023-04-02T06:20:32;99250.59;;;8.61
76541;BMP280;65385;55.772;37.658;2023-04-02T06:21:33;99240.94;;;8.61
76541;BMP280;65385;55.772;37.658;2023-04-02T06:22:36;99249.31;;;8.63
76541;BMP280;65385;55.772;37.658;2023-04-02T06:23:46;99247.72;;;8.62
76541;BMP280;65385;55.772;37.658;2023-04-02T06:24:58;99249.84;;;8.65
76541;BMP280;65385;55.772;37.658;2023-04-02T06:26:04;99253.47;;;8.64
76541;BMP280;65385;55.772;37.658;2023-04-02T06:27:10;99256.09;;;8.64
76541;BMP280;65385;55.772;37.658;2023-04-02T06:28:28;99251.97;;;8.68
76541;BMP280;65385;55.772;37.658;2023-04-02T06:29:34;99254.25;;;8.70
76541;BMP280;65385;55.772;37.658;2023-04-02T06:30:42;99248.56;;;8.73
76541;BMP280;65385;55.772;37.658;2023-04-02T06:31:46;99248.59;;;8.78
76541;BMP280;65385;55.772;37.658;2023-04-02T06:32:51;99243.88;;;8.80
76541;BMP280;65385;55.772;37.658;2023-04-02T06:33:53;99246.00;;;8.83
76541;BMP280;65385;55.772;37.658;2023-04-02T06:34:57;99244.44;;;8.87
76541;BMP280;65385;55.772;37.658;2023-04-02T06:35:59;99251.47;;;8.91
76541;BMP280;65385;55.772;37.658;2023-04-02T06:38:21;99242.91;;;8.96
76541;BMP280;65385;55.772;37.658;2023-04-02T06:39:26;99243.16;;;9.00
76541;BMP280;65385;55.772;37.658;2023-04-02T06:41:31;99242.66;;;9.13
76541;BMP280;65385;55.772;37.658;2023-04-02T06:42:45;99243.72;;;9.22
76541;BMP280;65385;55.772;37.658;2023-04-02T06:44:13;99241.63;;;9.29
76541;BMP280;65385;55.772;37.658;2023-04-02T06:45:46;99243.72;;;9.37
76541;BMP280;65385;55.772;37.658;2023-04-02T06:48:22;99245.81;;;9.50
76541;BMP280;65385;55.772;37.658;2023-04-02T06:49:34;99249.22;;;9.56
76541;BMP280;65385;55.772;37.658;2023-04-02T06:50:46;99244.78;;;9.61
76541;BMP280;65385;55.772;37.658;2023-04-02T06:51:49;99239.78;;;9.65
76541;BMP280;65385;55.772;37.658;2023-04-02T06:52:57;99235.88;;;9.67
76541;BMP280;65385;55.772;37.658;2023-04-02T06:53:58;99237.44;;;9.73
76541;BMP280;65385;55.772;37.658;2023-04-02T06:54:59;99239.00;;;9.79
76541;BMP280;65385;55.772;37.658;2023-04-02T06:56:12;99245.28;;;9.88
76541;BMP280;65385;55.772;37.658;2023-04-02T06:57:18;99241.34;;;9.91
76541;BMP280;65385;55.772;37.658;2023-04-02T06:58:21;99243.66;;;9.93
76541;BMP280;65385;55.772;37.658;2023-04-02T06:59:22;99243.41;;;9.94
76541;BMP280;65385;55.772;37.658;2023-04-02T07:01:26;99247.56;;;10.00
76541;BMP280;65385;55.772;37.658;2023-04-02T07:02:34;99243.94;;;10.06
76541;BMP280;65385;55.772;37.658;2023-04-02T07:03:38;99245.22;;;10.04
76541;BMP280;65385;55.772;37.658;2023-04-02T07:04:45;99248.38;;;10.06
76541;BMP280;65385;55.772;37.658;2023-04-02T07:05:46;99252.56;;;10.07
76541;BMP280;65385;55.772;37.658;2023-04-02T07:06:47;99251.25;;;10.04
76541;BMP280;65385;55.772;37.658;2023-04-02T07:07:49;99253.59;;;10.01
76541;BMP280;65385;55.772;37.658;2023-04-02T07:08:50;99250.97;;;10.01
76541;BMP280;65385;55.772;37.658;2023-04-02T07:09:52;99261.69;;;9.99
76541;BMP280;65385;55.772;37.658;2023-04-02T07:10:53;99254.16;;;9.98
76541;BMP280;65385;55.772;37.658;2023-04-02T07:11:55;99255.19;;;9.97
76541;BMP280;65385;55.772;37.658;2023-04-02T07:12:55;99252.81;;;9.95
76541;BMP280;65385;55.772;37.658;2023-04-02T07:13:57;99252.28;;;9.93
76541;BMP280;65385;55.772;37.658;2023-04-02T07:14:59;99261.72;;;9.89
76541;BMP280;65385;55.772;37.658;2023-04-02T07:16:00;99256.75;;;9.87
76541;BMP280;65385;55.772;37.658;2023-04-02T07:17:01;99256.75;;;9.82
76541;BMP280;65385;55.772;37.658;2023-04-02T07:18:01;99267.22;;;9.77
76541;BMP280;65385;55.772;37.658;2023-04-02T07:19:02;99255.22;;;9.71
76541;BMP280;65385;55.772;37.658;2023-04-02T07:20:06;99246.59;;;9.66
76541;BMP280;65385;55.772;37.658;2023-04-02T07:21:09;99256.53;;;9.69
76541;BMP280;65385;55.772;37.658;2023-04-02T07:22:10;99253.13;;;9.68
76541;BMP280;65385;55.772;37.658;2023-04-02T07:23:14;99253.38;;;9.72
76541;BMP280;65385;55.772;37.658;2023-04-02T07:24:15;99262.75;;;9.73
76541;BMP280;65385;55.772;37.658;2023-04-02T07:25:15;99250.00;;;9.71
76541;BMP280;65385;55.772;37.658;2023-04-02T07:26:18;99257.28;;;9.74
76541;BMP280;65385;55.772;37.658;2023-04-02T07:27:19;99257.28;;;9.74
76541;BMP280;65385;55.772;37.658;2023-04-02T07:28:20;99260.69;;;9.75
76541;BMP280;65385;55.772;37.658;2023-04-02T07:29:21;99263.56;;;9.73
76541;BMP280;65385;55.772;37.658;2023-04-02T07:30:22;99263.31;;;9.70
76541;BMP280;65385;55.772;37.658;2023-04-02T07:31:25;99264.09;;;9.70
76541;BMP280;65385;55.772;37.658;2023-04-02T07:32:26;99267.47;;;9.66
76541;BMP280;65385;55.772;37.658;2023-04-02T07:33:29;99264.59;;;9.57
76541;BMP280;65385;55.772;37.658;2023-04-02T07:34:29;99272.72;;;9.56
76541;BMP280;65385;55.772;37.658;2023-04-02T07:35:30;99271.13;;;9.55
76541;BMP280;65385;55.772;37.658;2023-04-02T07:36:31;99271.41;;;9.53
76541;BMP280;65385;55.772;37.658;2023-04-02T07:37:32;99261.22;;;9.52
76541;BMP280;65385;55.772;37.658;2023-04-02T07:38:32;99268.28;;;9.51
76541;BMP280;65385;55.772;37.658;2023-04-02T07:39:34;99265.66;;;9.51